Brentwood South, TN

1:40 PM CST on December 05, 2016 (GMT -0600)
Brentwood South | | Change Station

Elev 743 ft 35.99 °N, 86.81 °W | Updated 13 seconds ago

Overcast
Overcast
44.1 °F
Feels Like 44 °F
N
2.0
Wind Variable Wind from NNE
Gusts 4.0 mph

Today
High -- | Low -- °F
--% Chance of Precip.
Yesterday
High -- | Low -- °F
Precip. -- in
Pressure 29.98 in
Visibility 10.0 miles
Clouds Overcast 700 ft
Windchill 44 °F
Dew Point 43 °F
Humidity 95%
Rainfall 0.00 in
Snow Depth Not available.
6:43 AM 4:32 PM
Waxing Crescent, 34% visible
METAR KBNA 051853Z 06008KT 10SM OVC007 08/06 A2998 RMK AO2 SLP152 T00780056
Pressure 29.98 in
Visibility 10.0 miles
Clouds Overcast 700 ft
Windchill 44 °F
Dew Point 43 °F
Humidity 95%
Rainfall 0.00 in
Snow Depth Not available.
6:43 AM 4:32 PM
Waxing Crescent, 34% visible
METAR KBNA 051853Z 06008KT 10SM OVC007 08/06 A2998 RMK AO2 SLP152 T00780056

10-Day Weather Forecast

Almanac

Astronomy

Dec. 05, 2016 Rise Set
Actual Time
Civil Twilight
Nautical Twilight
Astronomical Twilight
Moon
Length of Visible Light
Length of Day
Tomorrow will be .
, % of the Moon is Illuminated

Today's Extremes

State Highs State Lows

Community

WunderPhotos

Upload Photos

1,955,852 photos uploaded!

WunderBlog® & News

Nearby

Air Quality

  Air Quality AQ Index Pollutant
Not available.

Snow Depth

Station Depth Elevation

Earthquake Activity

City Distance Mag. Time & Date
Minimum magnitude displayed is 2.5.

Coastal Water Temperatures

Place Temperature

Stations

Nearby Weather Stations

Station Location Temp. Windchill Dew Point Humidity Wind Precip. Elev Updated Type
                   

Watches & Warnings

There are currently no watches in effect.